Terminal Aerodrome Forecast
Issued by NWS Cleveland, OH

Home | Current Version | Previous Version | Text Only | Print | Product List | Glossary Off
Versions: 1 2 3 4 5 6 7 8 9 10 11 12 13 14 15 16 17 18 19 20 21 22 23 24

458
FTUS41 KCLE 251121
TAFERI
TAF
KERI 251121Z 2512/2612 07008KT 5SM HZ SCT012 OVC045
     FM251400 07005KT 5SM BR VCSH SCT006 OVC012
      TEMPO 2514/2518 5SM -DZ BR OVC006
     FM251800 07009KT 5SM BR OVC025
     FM260000 07009KT 5SM BR OVC025
     FM260600 09010KT P6SM OVC035
     FM261000 12014KT P6SM OVC050=

USA.gov is the U.S. government's official web portal to all federal, state and local government web resources and services.